Time;durP1;ratioP1;P1;durP2;ratioP2;P2;SDS_P1;SDS_P2;PMS_P1;PMS_P2;Temp;Humidity;BMP_temperature;BMP_pressure;BME280_temperature;BME280_humidity;BME280_pressure;Samples;Min_cycle;Max_cycle;Signal;HPM_P1;HPM_P2
2022/10/04 00:01:07;;;;;;;7.97;2.80;;;10.10;99.90;;;;;;5020383;28;20212;-79
2022/10/04 00:03:40;;;;;;;6.57;2.97;;;10.10;99.90;;;;;;5027470;28;20206;-79
2022/10/04 00:06:15;;;;;;;5.70;2.87;;;10.20;99.90;;;;;;5019694;28;20715;-79
2022/10/04 00:08:47;;;;;;;6.00;2.30;;;9.90;99.90;;;;;;5023921;28;20262;-79
2022/10/04 00:11:18;;;;;;;3.20;2.27;;;9.80;99.90;;;;;;5018556;28;20205;-79
2022/10/04 00:13:50;;;;;;;6.70;2.63;;;9.90;99.90;;;;;;5020765;28;20211;-79
2022/10/04 00:16:26;;;;;;;8.77;3.00;;;10.00;99.90;;;;;;5073477;28;20224;-79
2022/10/04 00:19:02;;;;;;;11.10;2.87;;;10.10;99.90;;;;;;5072554;28;20207;-79
2022/10/04 00:22:02;;;;;;;4.73;2.67;;;10.10;99.90;;;;;;5016782;28;20710;-79
2022/10/04 00:24:31;;;;;;;6.73;2.67;;;10.10;99.90;;;;;;5030274;28;20558;-80
2022/10/04 00:27:19;;;;;;;6.57;2.57;;;10.10;99.90;;;;;;5030077;28;20232;-79
2022/10/04 00:29:50;;;;;;;6.63;2.30;;;10.10;99.90;;;;;;5015819;28;20340;-79
2022/10/04 00:32:30;;;;;;;3.63;2.30;;;10.30;99.90;;;;;;5033506;28;20269;-79
2022/10/04 00:34:57;;;;;;;12.97;2.80;;;10.30;99.90;;;;;;5035359;28;20590;-79
2022/10/04 00:37:26;;;;;;;5.93;2.80;;;10.30;99.90;;;;;;5038072;28;20246;-79
2022/10/04 00:40:01;;;;;;;8.53;3.30;;;10.30;99.90;;;;;;5031177;28;20214;-79
2022/10/04 00:42:50;;;;;;;7.60;2.57;;;10.40;99.90;;;;;;5078548;27;20219;-79
2022/10/04 00:45:37;;;;;;;4.97;1.97;;;10.40;99.90;;;;;;5025232;28;20203;-79
2022/10/04 00:48:34;;;;;;;8.07;1.93;;;10.30;99.90;;;;;;5036247;28;20211;-79
2022/10/04 00:51:10;;;;;;;9.50;2.27;;;10.30;99.90;;;;;;5036708;28;20196;-79
2022/10/04 00:53:46;;;;;;;5.13;2.40;;;10.40;99.90;;;;;;5031570;28;20211;-79
2022/10/04 00:56:18;;;;;;;8.33;3.00;;;10.40;99.90;;;;;;5038307;28;20223;-79
2022/10/04 00:59:03;;;;;;;7.50;2.10;;;10.30;99.90;;;;;;5036389;28;20208;-79
2022/10/04 01:01:35;;;;;;;4.13;1.97;;;10.40;99.90;;;;;;5036547;28;20204;-79
2022/10/04 01:04:06;;;;;;;4.40;2.40;;;10.40;99.90;;;;;;5035776;28;20597;-79
2022/10/04 01:06:35;;;;;;;5.57;2.30;;;10.40;99.90;;;;;;5027541;28;20227;-79
2022/10/04 01:09:07;;;;;;;9.70;2.50;;;10.60;99.90;;;;;;5035221;28;20204;-79
2022/10/04 01:11:37;;;;;;;8.87;2.20;;;10.50;99.90;;;;;;5025524;28;20735;-79
2022/10/04 01:14:09;;;;;;;9.90;2.20;;;10.70;99.90;;;;;;5036260;28;20210;-79
2022/10/04 01:16:37;;;;;;;4.03;2.17;;;10.50;99.90;;;;;;5038864;28;20234;-79
2022/10/04 01:19:29;;;;;;;11.37;3.07;;;10.50;99.90;;;;;;5030125;28;20583;-79
2022/10/04 01:22:08;;;;;;;5.10;1.87;;;10.50;99.90;;;;;;5045574;27;20239;-79
2022/10/04 01:24:38;;;;;;;5.13;2.00;;;10.60;99.90;;;;;;5115267;27;20208;-79
2022/10/04 01:27:27;;;;;;;7.03;2.50;;;10.60;99.90;;;;;;5034100;28;20231;-79
2022/10/04 01:29:54;;;;;;;4.70;1.90;;;10.60;99.90;;;;;;5020276;28;20211;-79
2022/10/04 01:32:21;;;;;;;5.87;2.00;;;10.60;99.90;;;;;;5023108;28;20198;-79
2022/10/04 01:34:48;;;;;;;5.50;1.70;;;10.60;99.90;;;;;;5032550;28;20196;-79
2022/10/04 01:37:15;;;;;;;5.03;1.77;;;10.70;99.90;;;;;;5019133;28;20217;-79
2022/10/04 01:39:44;;;;;;;6.57;2.00;;;10.60;99.90;;;;;;5021971;28;20207;-79
2022/10/04 01:42:17;;;;;;;6.20;1.90;;;10.70;99.90;;;;;;5037905;28;20242;-79
2022/10/04 01:44:48;;;;;;;5.90;2.00;;;10.70;99.90;;;;;;5036797;28;20200;-79
2022/10/04 01:47:24;;;;;;;6.50;2.00;;;10.70;99.90;;;;;;5036699;28;20230;-79
2022/10/04 01:49:56;;;;;;;8.20;2.10;;;10.80;99.90;;;;;;5037054;28;20267;-79
2022/10/04 01:52:29;;;;;;;6.73;1.93;;;10.80;99.90;;;;;;5031205;28;20211;-80
2022/10/04 01:55:03;;;;;;;4.00;2.00;;;10.70;99.90;;;;;;5038609;28;20216;-79
2022/10/04 01:57:36;;;;;;;6.10;2.10;;;10.70;99.90;;;;;;5031395;28;20215;-79
2022/10/04 02:00:07;;;;;;;4.00;1.80;;;10.60;99.90;;;;;;5017707;28;20204;-79
2022/10/04 02:02:39;;;;;;;5.80;2.03;;;10.60;99.90;;;;;;5019036;28;20323;-79
2022/10/04 02:05:09;;;;;;;8.83;2.00;;;10.60;99.90;;;;;;5029142;28;20200;-79
2022/10/04 02:07:38;;;;;;;3.90;2.10;;;10.60;99.90;;;;;;5028505;28;20226;-79
2022/10/04 02:10:10;;;;;;;4.60;1.87;;;10.60;99.90;;;;;;5033535;28;20238;-81
2022/10/04 02:12:43;;;;;;;4.13;1.90;;;10.60;99.90;;;;;;5036372;28;20202;-80
2022/10/04 02:15:11;;;;;;;8.37;2.77;;;10.60;99.90;;;;;;5028040;28;20204;-79
2022/10/04 02:17:41;;;;;;;4.73;1.90;;;10.70;99.90;;;;;;5030055;28;20246;-79
2022/10/04 02:20:13;;;;;;;4.23;1.60;;;10.70;99.90;;;;;;5047396;27;20277;-79
2022/10/04 02:22:42;;;;;;;6.83;1.83;;;10.80;99.90;;;;;;5036019;27;20215;-80
2022/10/04 02:25:11;;;;;;;10.30;2.13;;;10.70;99.90;;;;;;5032019;28;20204;-79
2022/10/04 02:27:38;;;;;;;5.57;2.03;;;10.70;99.90;;;;;;5027079;28;20219;-80
2022/10/04 02:30:07;;;;;;;6.10;1.60;;;10.80;99.90;;;;;;5038643;27;20214;-79
2022/10/04 02:35:21;;;;;;;6.90;1.80;;;10.80;99.90;;;;;;5034578;28;20221;-80
2022/10/04 02:37:51;;;;;;;7.10;1.80;;;10.80;99.90;;;;;;5032850;28;20228;-80
2022/10/04 02:40:25;;;;;;;6.47;1.83;;;10.80;99.90;;;;;;5041098;27;20261;-82
2022/10/04 02:42:59;;;;;;;6.73;2.03;;;10.80;99.90;;;;;;5032742;28;20321;-81
2022/10/04 02:45:33;;;;;;;4.33;1.70;;;10.80;99.90;;;;;;5038878;27;20544;-80
2022/10/04 02:48:12;;;;;;;3.37;1.83;;;10.80;99.90;;;;;;5035438;27;20208;-79
2022/10/04 02:50:47;;;;;;;5.70;1.87;;;10.90;99.90;;;;;;5041082;27;20203;-80
2022/10/04 02:53:21;;;;;;;8.67;1.80;;;10.90;99.90;;;;;;5069071;27;20326;-79
2022/10/04 02:55:50;;;;;;;3.60;1.57;;;10.90;99.90;;;;;;5054363;27;20427;-80
2022/10/04 02:58:21;;;;;;;4.37;2.00;;;10.90;99.90;;;;;;5141135;27;20215;-79
2022/10/04 03:00:50;;;;;;;6.17;1.80;;;10.90;99.90;;;;;;5083207;27;20658;-79
2022/10/04 03:03:22;;;;;;;4.87;2.00;;;10.90;99.90;;;;;;5037686;28;20727;-79
2022/10/04 03:06:04;;;;;;;4.40;1.90;;;10.90;99.90;;;;;;5037491;28;20204;-79
2022/10/04 03:08:34;;;;;;;7.23;1.83;;;10.90;99.90;;;;;;5041465;27;20211;-79
2022/10/04 03:11:05;;;;;;;8.43;2.13;;;10.90;99.90;;;;;;5043653;27;20271;-79
2022/10/04 03:13:33;;;;;;;5.13;1.90;;;10.90;99.90;;;;;;5037626;28;20207;-79
2022/10/04 03:16:00;;;;;;;7.43;2.47;;;11.00;99.90;;;;;;5036847;28;20456;-79
2022/10/04 03:18:27;;;;;;;9.70;2.87;;;10.90;99.90;;;;;;5036336;28;20230;-78
2022/10/04 03:20:55;;;;;;;4.77;2.03;;;10.90;99.90;;;;;;5025178;28;20227;-79
2022/10/04 03:23:22;;;;;;;9.60;2.00;;;10.90;99.90;;;;;;5038879;28;20219;-79
2022/10/04 03:25:53;;;;;;;3.63;1.73;;;10.80;99.90;;;;;;5022797;28;20212;-84
2022/10/04 03:28:21;;;;;;;5.20;2.07;;;10.80;99.90;;;;;;5035122;28;20231;-78
2022/10/04 03:30:48;;;;;;;4.60;1.80;;;10.80;99.90;;;;;;5033097;28;20242;-79
2022/10/04 03:33:21;;;;;;;11.43;4.43;;;10.80;99.90;;;;;;5025253;28;20234;-81
2022/10/04 03:35:52;;;;;;;9.37;5.43;;;10.90;99.90;;;;;;5016050;28;20228;-81
2022/10/04 03:38:21;;;;;;;7.50;1.90;;;10.90;99.90;;;;;;5020004;28;20215;-81
2022/10/04 03:40:52;;;;;;;6.23;2.13;;;10.90;99.90;;;;;;5035995;28;20216;-81
2022/10/04 03:43:24;;;;;;;8.30;1.90;;;10.90;99.90;;;;;;5035201;28;20227;-81
2022/10/04 03:45:52;;;;;;;2.90;2.47;;;10.90;99.90;;;;;;5034536;28;20232;-80
2022/10/04 03:48:30;;;;;;;6.67;1.90;;;11.00;99.90;;;;;;5034863;28;20210;-81
2022/10/04 03:50:58;;;;;;;14.47;2.00;;;11.00;99.90;;;;;;5035068;28;20229;-81
2022/10/04 03:53:31;;;;;;;6.53;2.13;;;11.00;99.90;;;;;;5036242;28;20584;-81
2022/10/04 03:55:59;;;;;;;9.90;2.93;;;11.00;99.90;;;;;;5032819;28;20238;-81
2022/10/04 03:58:30;;;;;;;8.57;3.07;;;11.00;99.90;;;;;;5034049;27;20279;-81
2022/10/04 04:01:10;;;;;;;6.63;2.17;;;11.00;99.90;;;;;;5035324;27;20212;-80
2022/10/04 04:03:46;;;;;;;5.77;2.40;;;10.90;99.90;;;;;;5053048;28;20225;-81
2022/10/04 04:06:18;;;;;;;4.83;2.20;;;10.90;99.90;;;;;;5054612;28;20286;-81
2022/10/04 04:08:49;;;;;;;5.50;2.57;;;10.90;99.90;;;;;;5044406;28;20281;-81
2022/10/04 04:11:21;;;;;;;6.37;2.27;;;10.80;99.90;;;;;;5036706;28;20200;-81
2022/10/04 04:13:55;;;;;;;5.27;2.20;;;11.00;99.90;;;;;;5034307;28;20196;-81
2022/10/04 04:16:25;;;;;;;6.60;2.30;;;10.90;99.90;;;;;;5036493;28;20318;-81
2022/10/04 04:18:55;;;;;;;6.07;2.10;;;10.90;99.90;;;;;;5036064;28;20300;-81
2022/10/04 04:21:23;;;;;;;9.10;2.50;;;10.90;99.90;;;;;;5034567;27;20229;-81
2022/10/04 04:23:55;;;;;;;3.63;1.80;;;10.90;99.90;;;;;;5030243;27;20300;-83
2022/10/04 04:26:27;;;;;;;4.13;1.70;;;10.80;99.90;;;;;;5033821;28;20310;-81
2022/10/04 04:29:02;;;;;;;4.30;1.70;;;10.90;99.90;;;;;;5033658;27;20203;-81
2022/10/04 04:31:33;;;;;;;11.13;5.47;;;10.90;99.90;;;;;;5036322;28;20637;-80
2022/10/04 04:34:02;;;;;;;7.10;3.10;;;10.90;99.90;;;;;;5033882;28;20196;-81
2022/10/04 04:36:40;;;;;;;5.03;2.00;;;10.80;99.90;;;;;;5032303;28;20218;-81
2022/10/04 04:41:53;;;;;;;8.23;1.97;;;10.70;99.90;;;;;;5014570;28;20607;-81
2022/10/04 04:44:22;;;;;;;4.57;1.80;;;10.60;99.90;;;;;;5014909;28;20217;-81
2022/10/04 04:46:48;;;;;;;5.30;2.23;;;10.70;99.90;;;;;;5014425;28;20629;-81
2022/10/04 04:49:17;;;;;;;5.97;1.87;;;10.70;99.90;;;;;;5012831;28;20208;-80
2022/10/04 04:51:49;;;;;;;5.40;1.90;;;10.60;99.90;;;;;;5014870;28;20822;-81
2022/10/04 04:54:18;;;;;;;5.93;1.90;;;10.60;99.90;;;;;;5014801;28;20216;-81
2022/10/04 04:56:48;;;;;;;8.07;2.20;;;10.50;99.90;;;;;;5015374;28;20232;-81
2022/10/04 04:59:16;;;;;;;3.30;1.60;;;10.50;99.90;;;;;;5015404;28;20223;-81
2022/10/04 05:01:46;;;;;;;4.87;1.93;;;10.50;99.90;;;;;;5015993;28;20231;-80
2022/10/04 05:04:20;;;;;;;4.10;2.10;;;10.60;99.90;;;;;;5015802;28;20231;-81
2022/10/04 05:06:48;;;;;;;7.37;2.17;;;10.60;99.90;;;;;;5015686;28;20718;-80
2022/10/04 05:09:26;;;;;;;3.57;1.87;;;10.40;99.90;;;;;;5014954;28;20268;-81
2022/10/04 05:11:56;;;;;;;7.87;2.07;;;10.40;99.90;;;;;;5015747;28;20204;-80
2022/10/04 05:14:23;;;;;;;6.43;2.40;;;10.30;99.90;;;;;;5016237;28;20299;-81
2022/10/04 05:16:53;;;;;;;3.60;1.80;;;10.30;99.90;;;;;;5015096;28;20319;-81
2022/10/04 05:19:24;;;;;;;10.10;2.10;;;10.40;99.90;;;;;;5018143;28;20205;-80
2022/10/04 05:21:54;;;;;;;4.97;2.00;;;10.30;99.90;;;;;;5018619;28;20219;-80
2022/10/04 05:24:26;;;;;;;4.23;1.93;;;10.30;99.90;;;;;;5019042;28;20227;-81
2022/10/04 05:26:56;;;;;;;4.17;2.07;;;10.20;99.90;;;;;;5019001;28;20228;-81
2022/10/04 05:29:25;;;;;;;6.63;2.17;;;10.30;99.90;;;;;;5018832;28;20196;-80
2022/10/04 05:32:03;;;;;;;9.30;2.93;;;10.30;99.90;;;;;;5018609;28;20661;-81
2022/10/04 05:34:36;;;;;;;7.03;2.40;;;10.20;99.90;;;;;;5018416;28;20200;-81
2022/10/04 05:37:27;;;;;;;7.67;2.23;;;10.30;99.90;;;;;;5018855;28;20315;-81
2022/10/04 05:40:06;;;;;;;6.50;2.40;;;10.30;99.90;;;;;;5023139;28;20200;-80
2022/10/04 05:42:38;;;;;;;4.57;2.27;;;10.30;99.90;;;;;;5020054;28;20275;-80
2022/10/04 05:45:15;;;;;;;6.13;1.80;;;10.40;99.90;;;;;;5019052;28;20254;-80
2022/10/04 05:47:43;;;;;;;4.00;2.10;;;10.40;99.90;;;;;;5018065;28;20225;-81
2022/10/04 05:50:16;;;;;;;5.33;2.07;;;10.50;99.90;;;;;;5018493;28;20215;-80
2022/10/04 05:52:43;;;;;;;4.97;2.33;;;10.50;99.90;;;;;;5018762;28;20287;-80
2022/10/04 05:55:26;;;;;;;8.20;2.07;;;10.40;99.90;;;;;;5019548;28;20208;-80
2022/10/04 05:58:17;;;;;;;9.57;2.30;;;10.50;99.90;;;;;;5018299;28;20602;-81
2022/10/04 06:00:56;;;;;;;8.00;2.60;;;10.50;99.90;;;;;;5018467;28;20277;-81
2022/10/04 06:03:35;;;;;;;6.37;2.00;;;10.40;99.90;;;;;;5018031;28;20234;-80
2022/10/04 06:06:10;;;;;;;6.03;2.10;;;10.50;99.90;;;;;;5018007;28;20232;-81
2022/10/04 06:08:50;;;;;;;3.63;1.73;;;10.30;99.90;;;;;;5017773;28;20238;-81
2022/10/04 06:11:35;;;;;;;3.87;2.17;;;10.20;99.90;;;;;;5017642;28;20237;-81
2022/10/04 06:14:26;;;;;;;7.83;2.00;;;10.50;99.90;;;;;;5020236;28;20219;-81
2022/10/04 06:17:16;;;;;;;4.43;2.00;;;10.50;99.90;;;;;;5039336;27;20223;-81
2022/10/04 06:20:10;;;;;;;7.13;2.13;;;10.50;99.90;;;;;;5034015;28;20220;-81
2022/10/04 06:22:44;;;;;;;5.40;2.40;;;10.50;99.90;;;;;;5077293;27;20315;-81
2022/10/04 06:25:15;;;;;;;3.23;2.13;;;10.60;99.90;;;;;;5034892;28;20223;-81
2022/10/04 06:27:48;;;;;;;7.63;2.40;;;10.60;99.90;;;;;;5035391;27;20598;-81
2022/10/04 06:30:17;;;;;;;8.10;2.50;;;10.60;99.90;;;;;;5034472;28;20204;-81
2022/10/04 06:33:08;;;;;;;8.37;2.50;;;10.70;99.90;;;;;;5036583;27;20215;-81
2022/10/04 06:35:59;;;;;;;8.07;2.90;;;10.70;99.90;;;;;;5035410;28;20243;-81
2022/10/04 06:38:53;;;;;;;5.43;2.80;;;10.70;99.90;;;;;;5051517;27;20380;-81
2022/10/04 06:41:49;;;;;;;9.00;2.87;;;10.90;99.90;;;;;;5075526;27;20279;-81
2022/10/04 06:44:35;;;;;;;8.53;2.80;;;11.00;99.90;;;;;;5045992;27;20231;-81
2022/10/04 06:47:21;;;;;;;6.73;2.60;;;11.00;99.90;;;;;;5054280;27;20266;-81
2022/10/04 06:49:54;;;;;;;7.97;2.80;;;11.10;99.90;;;;;;5041943;27;20206;-81
2022/10/04 06:52:57;;;;;;;5.77;3.07;;;11.20;99.90;;;;;;5078330;27;20583;-81
2022/10/04 06:55:37;;;;;;;6.20;3.07;;;11.20;99.90;;;;;;5014806;28;20201;-81
2022/10/04 06:58:31;;;;;;;9.53;3.10;;;11.30;99.90;;;;;;5021753;28;20291;-81
2022/10/04 07:01:03;;;;;;;3.73;2.70;;;11.40;99.90;;;;;;5035816;28;20211;-81
2022/10/04 07:03:38;;;;;;;9.13;3.03;;;11.40;99.90;;;;;;5035131;28;20307;-81
2022/10/04 07:06:09;;;;;;;7.67;2.67;;;11.40;99.90;;;;;;5036768;28;20227;-81
2022/10/04 07:08:41;;;;;;;12.20;2.77;;;11.40;99.90;;;;;;5035372;27;20237;-81
2022/10/04 07:11:15;;;;;;;11.97;3.53;;;11.50;99.90;;;;;;5033047;28;20195;-81
2022/10/04 07:13:49;;;;;;;6.77;3.00;;;11.60;99.90;;;;;;5033542;27;20290;-81
2022/10/04 07:16:28;;;;;;;4.57;3.33;;;11.60;99.90;;;;;;5036221;28;20234;-81
2022/10/04 07:19:03;;;;;;;9.33;3.40;;;11.60;99.90;;;;;;5033566;27;20204;-81
2022/10/04 07:21:38;;;;;;;6.20;2.50;;;11.60;99.90;;;;;;5036765;27;20222;-81
2022/10/04 07:24:11;;;;;;;3.30;2.37;;;11.60;99.90;;;;;;5035840;27;20238;-81
2022/10/04 07:26:45;;;;;;;7.60;3.10;;;11.70;99.90;;;;;;5088601;27;20307;-81
2022/10/04 07:29:21;;;;;;;10.07;3.47;;;11.80;99.90;;;;;;5122445;27;20210;-81
2022/10/04 07:31:52;;;;;;;5.37;2.80;;;11.80;99.90;;;;;;5035523;27;20287;-81
2022/10/04 07:34:25;;;;;;;7.13;3.30;;;12.00;99.90;;;;;;5032712;28;20876;-81
2022/10/04 07:36:54;;;;;;;7.00;3.87;;;12.30;99.90;;;;;;5035405;27;20231;-81
2022/10/04 07:39:27;;;;;;;7.80;3.30;;;12.50;99.90;;;;;;5036443;28;20207;-81
2022/10/04 07:41:58;;;;;;;9.87;3.40;;;12.70;99.90;;;;;;5034867;27;20214;-81
2022/10/04 07:44:33;;;;;;;8.03;3.13;;;12.70;99.90;;;;;;5033852;28;20216;-81
2022/10/04 07:47:06;;;;;;;12.37;3.70;;;12.70;99.90;;;;;;5033648;28;20231;-81
2022/10/04 07:49:38;;;;;;;8.10;3.37;;;12.80;99.90;;;;;;5036311;28;20210;-80
2022/10/04 07:52:24;;;;;;;6.13;3.13;;;13.00;99.90;;;;;;5034997;28;20652;-81
2022/10/04 07:55:04;;;;;;;9.83;3.10;;;12.90;99.90;;;;;;5035333;27;20222;-81
2022/10/04 07:57:42;;;;;;;11.17;3.57;;;13.00;99.90;;;;;;5033789;28;20231;-81
2022/10/04 08:00:15;;;;;;;5.83;3.40;;;12.90;99.90;;;;;;5034138;28;20207;-81
2022/10/04 08:02:56;;;;;;;8.90;3.00;;;12.90;99.90;;;;;;5035326;28;20663;-80
2022/10/04 08:05:29;;;;;;;6.17;3.13;;;13.10;99.90;;;;;;5034671;28;20306;-81
2022/10/04 08:08:19;;;;;;;7.10;3.40;;;13.10;99.90;;;;;;5034909;28;20239;-81
2022/10/04 08:10:56;;;;;;;9.00;3.37;;;13.20;99.90;;;;;;5042387;28;20196;-81
2022/10/04 08:13:31;;;;;;;6.23;2.90;;;13.20;99.90;;;;;;5032363;28;20233;-81
2022/10/04 08:16:03;;;;;;;4.90;2.93;;;13.30;99.90;;;;;;5025696;28;20225;-81
2022/10/04 08:18:48;;;;;;;5.93;3.00;;;13.10;99.90;;;;;;5033641;28;20207;-81
2022/10/04 08:21:22;;;;;;;4.10;3.00;;;13.20;99.90;;;;;;5034283;27;20217;-81
2022/10/04 08:24:07;;;;;;;8.40;3.27;;;13.30;99.90;;;;;;5034168;27;20221;-81
2022/10/04 08:26:54;;;;;;;6.47;3.03;;;13.30;99.90;;;;;;5033898;27;20242;-81
2022/10/04 08:29:43;;;;;;;8.70;3.27;;;13.40;99.90;;;;;;5032599;28;20210;-81
2022/10/04 08:32:29;;;;;;;4.13;2.63;;;13.40;99.90;;;;;;5033924;28;20207;-81
2022/10/04 08:35:26;;;;;;;6.57;2.70;;;13.50;99.90;;;;;;5031584;28;20204;-81
2022/10/04 08:38:21;;;;;;;7.00;3.20;;;13.50;99.90;;;;;;5036486;27;20223;-81
2022/10/04 08:41:44;;;;;;;5.60;3.20;;;13.50;99.90;;;;;;5034564;27;20225;-81
2022/10/04 08:44:55;;;;;;;6.33;3.30;;;13.50;99.90;;;;;;5033885;28;20227;-81
2022/10/04 08:47:54;;;;;;;9.43;3.50;;;13.40;99.90;;;;;;5033386;28;20228;-81
2022/10/04 08:51:00;;;;;;;6.10;3.13;;;13.60;99.90;;;;;;5032952;28;20257;-81
2022/10/04 08:53:58;;;;;;;11.90;3.63;;;13.80;99.90;;;;;;5095562;27;20221;-81
2022/10/04 08:56:41;;;;;;;10.25;3.20;;;14.10;99.90;;;;;;5037885;28;20231;-81
2022/10/04 08:59:32;;;;;;;5.28;2.72;;;14.20;99.90;;;;;;5037527;28;20541;-81
2022/10/04 09:02:32;;;;;;;10.50;3.90;;;14.40;99.90;;;;;;5037594;28;20652;-81
2022/10/04 09:05:36;;;;;;;8.77;3.40;;;14.60;99.90;;;;;;5053514;28;20330;-81
2022/10/04 09:08:23;;;;;;;6.23;2.80;;;15.00;99.90;;;;;;5018366;28;20222;-81
2022/10/04 09:11:07;;;;;;;7.13;3.50;;;15.30;24.30;;;;;;5045980;27;20207;-81
2022/10/04 09:13:44;;;;;;;10.00;2.83;;;15.50;1.00;;;;;;5068570;27;20286;-81
2022/10/04 09:16:16;;;;;;;5.95;2.58;;;15.80;99.90;;;;;;5065088;27;20223;-81
2022/10/04 09:18:51;;;;;;;8.73;2.97;;;15.60;1.00;;;;;;5098009;27;20606;-81
2022/10/04 09:21:43;;;;;;;7.22;2.65;;;15.90;76.50;;;;;;5086552;27;20211;-81
2022/10/04 09:24:36;;;;;;;6.07;2.58;;;16.20;1.00;;;;;;5036729;27;20260;-81
2022/10/04 09:27:14;;;;;;;6.90;2.88;;;15.90;99.90;;;;;;5036968;28;20219;-81
2022/10/04 09:29:58;;;;;;;5.85;2.67;;;16.20;1.00;;;;;;5036223;28;20211;-81
2022/10/04 09:32:58;;;;;;;5.97;2.60;;;16.10;99.90;;;;;;5035787;28;20214;-81
2022/10/04 09:35:50;;;;;;;8.75;3.05;;;16.40;1.00;;;;;;5124507;27;20499;-81
2022/10/04 09:38:45;;;;;;;7.07;2.75;;;16.30;1.00;;;;;;5118423;27;20210;-81
2022/10/04 09:41:44;;;;;;;8.52;2.92;;;16.70;99.90;;;;;;5036994;28;20188;-81
2022/10/04 09:44:52;;;;;;;6.07;2.47;;;16.60;20.10;;;;;;5037898;28;20306;-81
2022/10/04 09:47:44;;;;;;;8.75;2.80;;;17.10;1.00;;;;;;5035076;27;20231;-81
2022/10/04 09:50:58;;;;;;;6.00;2.70;;;17.00;1.00;;;;;;5039490;27;20230;-81
2022/10/04 09:53:43;;;;;;;9.48;2.83;;;17.00;1.00;;;;;;5035433;28;20235;-81
2022/10/04 09:56:45;;;;;;;5.30;2.63;;;17.50;19.70;;;;;;5037330;28;20243;-81
2022/10/04 09:59:36;;;;;;;6.93;2.97;;;17.60;1.00;;;;;;5035215;27;20211;-81
2022/10/04 10:02:40;;;;;;;6.40;2.92;;;17.40;1.00;;;;;;5037318;27;20220;-81
2022/10/04 10:05:29;;;;;;;5.72;2.45;;;17.70;99.90;;;;;;5034374;28;20238;-81
2022/10/04 10:08:08;;;;;;;5.97;2.65;;;17.90;1.00;;;;;;5036071;28;20251;-81
2022/10/04 10:14:12;;;;;;;8.52;2.50;;;18.10;99.90;;;;;;5035718;28;20293;-82
2022/10/04 10:16:52;;;;;;;5.07;2.67;;;18.30;1.00;;;;;;5043541;27;20299;-81
2022/10/04 10:19:46;;;;;;;4.65;2.03;;;18.10;1.00;;;;;;5033694;28;20214;-81
2022/10/04 10:22:30;;;;;;;4.53;2.40;;;18.40;1.00;;;;;;5034842;28;20747;-81
2022/10/04 10:25:26;;;;;;;6.40;2.42;;;18.60;1.00;;;;;;5036058;28;20297;-81
2022/10/04 10:28:16;;;;;;;6.47;2.53;;;18.40;99.90;;;;;;5035813;28;20322;-81
2022/10/04 10:30:58;;;;;;;7.15;2.42;;;18.20;99.90;;;;;;5036102;28;20211;-82
2022/10/04 10:33:53;;;;;;;8.77;3.10;;;17.70;99.90;;;;;;5035192;28;20453;-81
2022/10/04 10:36:32;;;;;;;4.50;2.00;;;17.50;1.00;;;;;;5035467;28;20228;-81
2022/10/04 10:39:15;;;;;;;8.68;2.90;;;17.30;37.70;;;;;;5036249;28;20203;-82
2022/10/04 10:42:05;;;;;;;6.35;2.33;;;17.00;1.00;;;;;;5062022;27;20199;-81
2022/10/04 10:44:55;;;;;;;5.07;2.53;;;17.40;1.00;;;;;;5055479;27;20706;-81
2022/10/04 10:47:37;;;;;;;3.58;2.20;;;17.80;99.90;;;;;;5063225;27;20219;-82
2022/10/04 10:50:25;;;;;;;4.60;2.60;;;18.30;57.00;;;;;;5101590;27;20193;-82
2022/10/04 10:53:28;;;;;;;4.78;2.33;;;18.60;1.00;;;;;;5100876;27;20222;-81
2022/10/04 10:56:28;;;;;;;6.30;2.20;;;18.80;1.00;;;;;;5039033;27;20310;-81
2022/10/04 10:59:42;;;;;;;3.88;2.33;;;18.90;1.00;;;;;;5034521;28;20204;-82
2022/10/04 11:02:47;;;;;;;7.85;2.58;;;19.00;1.00;;;;;;5034377;28;20204;-81
2022/10/04 11:06:03;;;;;;;3.80;2.38;;;19.10;1.00;;;;;;5033990;28;20236;-81
2022/10/04 11:09:18;;;;;;;4.38;2.55;;;18.60;1.00;;;;;;5020309;28;20222;-81
2022/10/04 11:12:05;;;;;;;4.32;2.30;;;19.20;1.00;;;;;;5035562;28;20230;-81
2022/10/04 11:15:06;;;;;;;3.25;2.42;;;19.30;99.90;;;;;;5034369;28;20295;-81
2022/10/04 11:17:49;;;;;;;8.75;2.30;;;19.00;99.90;;;;;;5035272;27;20219;-83
2022/10/04 11:20:58;;;;;;;6.85;2.88;;;19.50;99.90;;;;;;5047063;27;20574;-82
2022/10/04 11:24:03;;;;;;;5.95;2.40;;;19.50;97.80;;;;;;5021053;28;20239;-82
2022/10/04 11:27:04;;;;;;;5.60;2.40;;;19.50;99.90;;;;;;5021256;28;20237;-82
2022/10/04 11:30:13;;;;;;;5.60;2.58;;;19.50;48.80;;;;;;5034820;27;20222;-82
2022/10/04 11:33:15;;;;;;;4.50;2.47;;;19.70;1.00;;;;;;5038807;28;20621;-82
2022/10/04 11:36:06;;;;;;;4.68;2.35;;;19.60;1.00;;;;;;5023094;27;20567;-81
2022/10/04 11:39:05;;;;;;;4.70;2.03;;;19.70;95.20;;;;;;5086475;27;20203;-82
2022/10/04 11:41:47;;;;;;;4.88;2.08;;;19.80;1.00;;;;;;5040874;27;20204;-83
2022/10/04 11:44:48;;;;;;;6.75;2.40;;;19.70;1.00;;;;;;5075053;27;20195;-82
2022/10/04 11:47:27;;;;;;;8.73;2.60;;;19.90;1.00;;;;;;5077406;27;20561;-83
2022/10/04 11:50:28;;;;;;;5.22;2.40;;;20.50;1.00;;;;;;5126344;27;20199;-83
2022/10/04 11:53:26;;;;;;;7.95;2.78;;;20.20;1.00;;;;;;5034781;27;20207;-82
2022/10/04 11:56:20;;;;;;;5.53;2.50;;;20.30;1.00;;;;;;5033600;28;20255;-83
2022/10/04 11:58:59;;;;;;;3.13;2.10;;;20.20;1.00;;;;;;5033569;28;20589;-83
2022/10/04 12:02:09;;;;;;;8.23;2.63;;;20.10;1.00;;;;;;5032848;28;20203;-83
2022/10/04 12:05:03;;;;;;;6.82;2.67;;;20.40;1.00;;;;;;5034384;27;20215;-82
2022/10/04 12:07:42;;;;;;;5.95;2.60;;;20.80;1.00;;;;;;5034901;28;20607;-83
2022/10/04 12:10:23;;;;;;;3.92;2.13;;;20.70;1.00;;;;;;5031757;28;20234;-83
2022/10/04 12:13:34;;;;;;;7.38;3.22;;;20.80;1.00;;;;;;5033210;28;20212;-83
2022/10/04 12:16:28;;;;;;;9.05;3.70;;;20.90;1.00;;;;;;5007844;28;20280;-83
2022/10/04 12:19:42;;;;;;;5.75;2.33;;;20.60;1.00;;;;;;5031144;28;20200;-82
2022/10/04 12:22:27;;;;;;;6.78;2.55;;;20.60;1.00;;;;;;5078924;27;20203;-82
2022/10/04 12:25:14;;;;;;;3.38;2.42;;;20.70;1.00;;;;;;5032027;28;20659;-84
2022/10/04 12:28:25;;;;;;;5.65;2.75;;;20.40;1.00;;;;;;5030766;28;20254;-83
2022/10/04 12:31:11;;;;;;;3.38;2.90;;;20.90;1.00;;;;;;5037748;27;20196;-83
2022/10/04 12:33:43;;;;;;;4.85;2.45;;;21.00;1.00;;;;;;5036707;28;20204;-83
2022/10/04 12:36:28;;;;;;;7.05;3.25;;;20.70;1.00;;;;;;5028727;28;20219;-83
2022/10/04 12:39:15;;;;;;;4.53;2.72;;;21.10;1.00;;;;;;5037778;28;20214;-83
2022/10/04 12:41:53;;;;;;;4.63;2.70;;;21.10;1.00;;;;;;5023675;28;20208;-83
2022/10/04 12:44:39;;;;;;;4.70;2.75;;;21.30;1.00;;;;;;5017400;28;20294;-84
2022/10/04 12:47:31;;;;;;;4.55;2.38;;;21.40;99.90;;;;;;5034615;28;20657;-83
2022/10/04 12:50:08;;;;;;;6.20;2.63;;;21.20;99.90;;;;;;5021668;28;20206;-83
2022/10/04 12:52:49;;;;;;;4.50;2.33;;;21.60;99.90;;;;;;5038380;28;20550;-83
2022/10/04 12:55:24;;;;;;;4.90;2.90;;;21.20;99.90;;;;;;5036335;28;20212;-83
2022/10/04 12:57:57;;;;;;;6.57;2.90;;;20.90;99.90;;;;;;5036226;28;20233;-83
2022/10/04 13:00:27;;;;;;;6.07;2.90;;;21.50;99.90;;;;;;5022977;28;20201;-83
2022/10/04 13:03:23;;;;;;;3.83;2.45;;;20.80;99.90;;;;;;5038473;28;20214;-82
2022/10/04 13:06:01;;;;;;;4.03;2.50;;;21.00;99.90;;;;;;5037138;28;20231;-82
2022/10/04 13:11:21;;;;;;;7.50;2.42;;;21.20;99.90;;;;;;5050376;28;20208;-86
2022/10/04 13:14:16;;;;;;;5.20;2.55;;;20.70;99.90;;;;;;5059536;28;20198;-86
2022/10/04 13:16:55;;;;;;;5.22;2.40;;;21.00;99.90;;;;;;5075239;28;20224;-86
2022/10/04 13:19:28;;;;;;;3.75;2.50;;;20.90;99.90;;;;;;5087596;28;20340;-87
2022/10/04 13:22:19;;;;;;;5.47;2.60;;;20.50;99.90;;;;;;5091412;28;20269;-86
2022/10/04 13:24:59;;;;;;;4.80;2.40;;;20.90;99.90;;;;;;5088625;28;20217;-87
2022/10/04 13:27:33;;;;;;;4.78;2.72;;;20.70;99.90;;;;;;5090790;28;20248;-87
2022/10/04 13:30:06;;;;;;;6.70;2.85;;;20.80;99.90;;;;;;5091229;28;20228;-87
2022/10/04 13:32:42;;;;;;;4.90;2.92;;;21.10;99.90;;;;;;5090504;28;20225;-86
2022/10/04 13:35:16;;;;;;;3.80;2.50;;;20.80;99.90;;;;;;5084370;28;20202;-86
2022/10/04 13:37:53;;;;;;;4.40;2.63;;;21.00;99.90;;;;;;5069699;28;20286;-87
2022/10/04 13:40:49;;;;;;;5.07;2.60;;;21.40;99.90;;;;;;5067501;28;20669;-87
2022/10/04 13:43:32;;;;;;;6.22;2.90;;;21.10;99.90;;;;;;5071233;28;20262;-86
2022/10/04 13:46:09;;;;;;;3.72;2.65;;;20.80;99.90;;;;;;5085500;28;20316;-86
2022/10/04 13:48:50;;;;;;;4.03;2.55;;;21.00;99.90;;;;;;5089406;28;20194;-86
2022/10/04 13:51:38;;;;;;;6.35;2.95;;;21.10;99.90;;;;;;5086120;28;20390;-87
2022/10/04 13:57:17;;;;;;;6.47;2.80;;;20.60;99.90;;;;;;5089377;28;20232;-87
2022/10/04 13:59:48;;;;;;;7.13;2.80;;;20.70;99.90;;;;;;5087615;28;20198;-87
2022/10/04 14:02:47;;;;;;;3.08;2.45;;;20.70;99.90;;;;;;5087927;28;20215;-86
2022/10/04 14:05:56;;;;;;;4.53;2.65;;;20.80;87.00;;;;;;5086472;28;20229;-86
2022/10/04 14:09:05;;;;;;;8.73;2.80;;;20.80;91.80;;;;;;5007338;28;20205;-86
2022/10/04 14:12:12;;;;;;;3.08;2.40;;;20.60;99.90;;;;;;5064192;28;20225;-87